Time;durP1;ratioP1;P1;durP2;ratioP2;P2;SDS_P1;SDS_P2;PMS_P1;PMS_P2;Temp;Humidity;BMP_temperature;BMP_pressure;BME280_temperature;BME280_humidity;BME280_pressure;Samples;Min_cycle;Max_cycle;Signal;HPM_P1;HPM_P2
2021/11/04 00:03:00;;;;;;;20.07;17.97;;;;;;;10.93;71.02;100311.38;6135757;28;20512;-62
2021/11/04 00:06:21;;;;;;;20.13;18.10;;;;;;;10.71;71.98;100318.72;6136196;28;20238;-63
2021/11/04 00:09:43;;;;;;;19.00;17.17;;;;;;;10.72;71.63;100315.22;6137506;28;20208;-63
2021/11/04 00:13:05;;;;;;;20.00;17.90;;;;;;;10.87;71.54;100303.69;6135638;28;20231;-63
2021/11/04 00:16:26;;;;;;;19.37;17.47;;;;;;;10.84;71.79;100299.38;6135829;28;20235;-63
2021/11/04 00:19:48;;;;;;;21.10;18.80;;;;;;;10.86;71.35;100309.75;6137509;28;20208;-62
2021/11/04 00:23:09;;;;;;;22.07;18.70;;;;;;;10.78;71.44;100304.72;6134685;28;20231;-63
2021/11/04 00:26:31;;;;;;;19.83;17.80;;;;;;;10.88;71.49;100311.47;6134618;28;20242;-63
2021/11/04 00:29:52;;;;;;;23.37;20.97;;;;;;;10.93;70.53;100314.81;6137996;29;20211;-63
2021/11/04 00:33:13;;;;;;;20.37;18.47;;;;;;;10.84;71.01;100312.41;6135155;28;20235;-63
2021/11/04 00:36:34;;;;;;;21.90;17.90;;;;;;;10.65;71.62;100311.88;6135591;28;20231;-63
2021/11/04 00:39:55;;;;;;;21.83;19.53;;;;;;;10.56;72.19;100305.06;6137853;28;20215;-63
2021/11/04 00:43:18;;;;;;;22.73;20.43;;;;;;;10.50;72.68;100304.31;6135440;28;20235;-63
2021/11/04 00:46:39;;;;;;;21.30;19.03;;;;;;;10.48;72.65;100303.50;6136634;28;20274;-64
2021/11/04 00:50:00;;;;;;;20.00;18.00;;;;;;;10.07;74.45;100299.78;6135804;28;20530;-63
2021/11/04 00:53:21;;;;;;;23.63;21.33;;;;;;;9.84;75.60;100307.03;6135223;28;20329;-63
2021/11/04 00:56:42;;;;;;;21.30;19.07;;;;;;;10.33;74.03;100302.88;6136221;28;20243;-62
2021/11/04 01:00:07;;;;;;;23.87;21.33;;;;;;;10.30;73.68;100302.91;6135745;28;20235;-63
2021/11/04 01:03:28;;;;;;;19.30;17.40;;;;;;;10.64;73.20;100299.72;6135272;28;20227;-64
2021/11/04 01:06:49;;;;;;;22.17;19.80;;;;;;;10.90;72.33;100299.28;6134846;28;20266;-64
2021/11/04 01:10:10;;;;;;;19.70;17.60;;;;;;;10.63;71.98;100290.22;6135661;28;20586;-63
2021/11/04 01:13:31;;;;;;;20.73;18.60;;;;;;;10.56;72.45;100299.00;6136540;28;20311;-62
2021/11/04 01:16:54;;;;;;;22.30;19.10;;;;;;;10.43;73.15;100299.22;6136270;28;20263;-63
2021/11/04 01:20:15;;;;;;;22.13;19.73;;;;;;;10.40;73.44;100299.25;6136047;28;20196;-63
2021/11/04 01:23:37;;;;;;;24.53;21.87;;;;;;;10.48;72.79;100287.88;6135655;28;20231;-63
2021/11/04 01:26:58;;;;;;;21.87;19.60;;;;;;;10.49;73.00;100287.84;6134618;28;20720;-64
2021/11/04 01:30:20;;;;;;;21.13;18.93;;;;;;;10.37;73.66;100293.25;6135526;29;20554;-62
2021/11/04 01:33:42;;;;;;;20.73;18.53;;;;;;;10.42;73.04;100287.09;6136581;28;20624;-63
2021/11/04 01:37:03;;;;;;;20.80;18.70;;;;;;;10.37;73.29;100294.13;6135429;28;20710;-63
2021/11/04 01:40:24;;;;;;;21.73;19.53;;;;;;;10.39;73.57;100281.94;6133849;28;20229;-63
2021/11/04 01:43:45;;;;;;;23.40;20.93;;;;;;;10.17;73.83;100276.19;6135854;28;20235;-63
2021/11/04 01:47:08;;;;;;;23.47;20.97;;;;;;;10.30;73.91;100292.50;6138985;28;20243;-63
2021/11/04 01:50:32;;;;;;;22.93;18.80;;;;;;;10.62;72.96;100285.88;6138923;28;20215;-63
2021/11/04 01:53:53;;;;;;;21.20;19.00;;;;;;;10.71;72.08;100298.75;6142257;29;20223;-63
2021/11/04 01:57:14;;;;;;;23.20;20.07;;;;;;;10.82;72.12;100285.53;6140416;28;20234;-64
2021/11/04 02:00:35;;;;;;;19.17;17.13;;;;;;;10.91;71.50;100287.09;6139784;29;20543;-62
2021/11/04 02:04:02;;;;;;;21.13;19.07;;;;;;;10.81;71.41;100283.81;6141191;28;20219;-63
2021/11/04 02:07:32;;;;;;;21.50;19.30;;;;;;;10.79;71.47;100291.63;6138642;28;20235;-64
2021/11/04 02:10:56;;;;;;;21.40;19.10;;;;;;;10.77;71.38;100283.00;6138326;28;20522;-62
2021/11/04 02:14:23;;;;;;;19.97;17.97;;;;;;;10.79;71.50;100283.81;6140842;28;20302;-63
2021/11/04 02:17:45;;;;;;;21.37;19.27;;;;;;;10.81;71.41;100279.44;6138698;28;20561;-62
2021/11/04 02:21:13;;;;;;;21.03;18.93;;;;;;;10.79;71.42;100281.22;6138787;28;20239;-64
2021/11/04 02:24:41;;;;;;;22.30;20.00;;;;;;;10.73;71.55;100267.47;6139025;29;20199;-63
2021/11/04 02:28:09;;;;;;;21.67;19.47;;;;;;;10.64;72.34;100273.69;6137730;28;20242;-63
2021/11/04 02:31:30;;;;;;;21.70;19.50;;;;;;;10.68;71.92;100270.13;6139678;28;20258;-63
2021/11/04 02:34:53;;;;;;;23.10;19.10;;;;;;;10.69;72.06;100258.84;6140185;29;20203;-63
2021/11/04 02:38:14;;;;;;;22.57;20.13;;;;;;;10.67;72.23;100260.63;6140477;28;20327;-63
2021/11/04 02:41:35;;;;;;;21.97;19.73;;;;;;;10.59;72.34;100258.16;6138784;28;20231;-63
2021/11/04 02:44:58;;;;;;;19.67;17.67;;;;;;;10.62;71.76;100252.91;6138144;28;20203;-63
2021/11/04 02:48:19;;;;;;;21.60;19.37;;;;;;;10.55;72.32;100253.03;6138816;28;20235;-63
2021/11/04 02:51:41;;;;;;;23.83;21.33;;;;;;;10.51;72.50;100249.63;6138470;28;20239;-63
2021/11/04 02:55:03;;;;;;;21.83;19.53;;;;;;;10.33;73.18;100245.63;6139412;28;20255;-62
2021/11/04 02:58:25;;;;;;;18.73;16.83;;;;;;;10.27;73.27;100244.81;6136849;28;20551;-63
2021/11/04 03:01:51;;;;;;;21.13;18.93;;;;;;;10.27;73.42;100244.81;6138816;28;20235;-64
2021/11/04 03:05:12;;;;;;;21.07;18.97;;;;;;;10.02;73.97;100235.69;6139399;29;20518;-62
2021/11/04 03:08:33;;;;;;;26.90;20.80;;;;;;;9.91;73.96;100242.78;6139682;28;20235;-63
2021/11/04 03:11:54;;;;;;;23.90;21.43;;;;;;;10.18;73.61;100251.91;6136282;28;20384;-63
2021/11/04 03:15:18;;;;;;;24.10;19.93;;;;;;;10.02;73.65;100246.09;6136723;28;20211;-63
2021/11/04 03:18:41;;;;;;;21.97;19.70;;;;;;;10.17;73.29;100249.31;6140047;28;20227;-63
2021/11/04 03:22:03;;;;;;;24.13;19.50;;;;;;;10.10;73.61;100248.56;6137265;28;20238;-64
2021/11/04 03:25:24;;;;;;;19.40;17.40;;;;;;;9.93;73.91;100254.03;6141571;28;20207;-63
2021/11/04 03:28:46;;;;;;;19.77;17.40;;;;;;;10.11;73.19;100252.00;6138735;28;20656;-63
2021/11/04 03:32:17;;;;;;;22.30;18.03;;;;;;;10.09;73.37;100246.84;6138251;28;22403;-63
2021/11/04 03:35:41;;;;;;;20.43;18.33;;;;;;;9.94;73.54;100250.53;6136932;28;20215;-61
2021/11/04 03:39:05;;;;;;;17.93;15.97;;;;;;;10.09;73.39;100246.84;6139900;29;20714;-63
2021/11/04 03:42:26;;;;;;;19.13;17.10;;;;;;;9.86;73.47;100245.44;6137726;28;20464;-63
2021/11/04 03:45:48;;;;;;;16.33;14.67;;;;;;;10.07;73.42;100252.94;6136558;28;20212;-63
2021/11/04 03:49:09;;;;;;;20.20;18.20;;;;;;;10.16;72.90;100264.06;6139224;29;20965;-63
2021/11/04 03:52:32;;;;;;;16.33;14.63;;;;;;;9.99;73.38;100272.13;6136270;28;20231;-62
2021/11/04 03:55:53;;;;;;;18.40;16.47;;;;;;;10.26;72.58;100280.41;6136456;28;20258;-63
2021/11/04 03:59:14;;;;;;;18.07;16.37;;;;;;;10.16;72.73;100258.03;6138742;29;20200;-63
2021/11/04 04:02:36;;;;;;;17.47;15.67;;;;;;;10.22;72.36;100255.31;6135707;28;20361;-63
2021/11/04 04:06:01;;;;;;;15.93;14.43;;;;;;;10.07;72.75;100247.75;6136939;28;20559;-63
2021/11/04 04:09:24;;;;;;;15.10;13.53;;;;;;;9.89;73.39;100256.69;6137984;28;20272;-62
2021/11/04 04:12:46;;;;;;;13.70;12.37;;;;;;;10.17;72.36;100260.56;6135304;28;20532;-64
2021/11/04 04:16:07;;;;;;;16.03;14.50;;;;;;;10.13;72.38;100250.25;6137247;28;20254;-63
2021/11/04 04:19:28;;;;;;;15.10;13.67;;;;;;;10.19;72.94;100252.75;6139117;29;20223;-63
2021/11/04 04:22:49;;;;;;;15.93;14.23;;;;;;;10.06;72.49;100236.47;6134924;28;20585;-63
2021/11/04 04:26:12;;;;;;;14.93;13.37;;;;;;;9.92;72.87;100246.25;6137755;28;20231;-63
2021/11/04 04:29:33;;;;;;;15.93;14.23;;;;;;;10.13;72.51;100247.66;6137670;29;20215;-64
2021/11/04 04:32:54;;;;;;;13.13;11.77;;;;;;;10.05;72.57;100247.75;6135961;28;20235;-63
2021/11/04 04:36:16;;;;;;;18.17;12.43;;;;;;;10.29;71.82;100254.28;6137539;28;20531;-63
2021/11/04 04:39:37;;;;;;;12.87;11.33;;;;;;;10.08;72.11;100245.13;6138048;29;20497;-63
2021/11/04 04:42:59;;;;;;;12.83;11.63;;;;;;;10.09;72.38;100253.78;6135051;28;21599;-63
2021/11/04 04:46:21;;;;;;;14.03;12.60;;;;;;;10.14;72.73;100250.22;6137121;28;21377;-63
2021/11/04 04:49:42;;;;;;;13.70;12.43;;;;;;;10.18;72.50;100243.22;6137022;28;20210;-62
2021/11/04 04:53:03;;;;;;;17.80;16.00;;;;;;;10.22;72.50;100242.28;6137415;28;20326;-61
2021/11/04 04:56:24;;;;;;;19.87;17.90;;;;;;;9.99;72.79;100250.47;6137761;28;20318;-63
2021/11/04 04:59:47;;;;;;;15.10;13.60;;;;;;;10.22;72.14;100247.50;6136427;29;20207;-62
2021/11/04 05:03:08;;;;;;;13.90;12.60;;;;;;;10.37;71.95;100255.09;6133396;28;20234;-64
2021/11/04 05:06:29;;;;;;;16.00;13.80;;;;;;;10.23;71.52;100254.41;6136676;28;20257;-64
2021/11/04 05:09:50;;;;;;;13.93;12.63;;;;;;;10.20;71.90;100264.88;6136190;28;20494;-64
2021/11/04 05:13:11;;;;;;;18.93;17.20;;;;;;;10.14;72.02;100257.16;6136034;28;20243;-62
2021/11/04 05:16:33;;;;;;;17.93;16.33;;;;;;;9.97;72.44;100258.28;6136114;28;20231;-63
2021/11/04 05:19:54;;;;;;;15.07;13.50;;;;;;;9.96;72.61;100277.38;6136018;28;20212;-63
2021/11/04 05:23:15;;;;;;;13.37;12.03;;;;;;;10.12;71.82;100271.94;6133420;28;20235;-63
2021/11/04 05:26:37;;;;;;;14.37;12.97;;;;;;;10.15;72.30;100279.69;6136711;28;20231;-63
2021/11/04 05:29:58;;;;;;;15.00;13.50;;;;;;;10.13;71.89;100273.66;6137304;28;20216;-64
2021/11/04 05:33:20;;;;;;;13.73;12.43;;;;;;;10.32;71.61;100269.91;6135729;28;20234;-64
2021/11/04 05:36:41;;;;;;;14.53;13.07;;;;;;;10.14;72.01;100270.16;6135621;28;20247;-63
2021/11/04 05:40:02;;;;;;;15.33;13.73;;;;;;;10.24;71.50;100274.34;6135993;28;20489;-63
2021/11/04 05:43:23;;;;;;;15.53;14.00;;;;;;;10.25;72.05;100273.47;6133740;28;20243;-63
2021/11/04 05:46:44;;;;;;;14.63;13.23;;;;;;;10.20;71.99;100280.50;6134318;28;20227;-62
2021/11/04 05:50:07;;;;;;;15.47;13.73;;;;;;;10.10;71.81;100279.78;6136087;28;20199;-64
2021/11/04 05:53:28;;;;;;;16.57;15.00;;;;;;;10.14;72.57;100290.97;6134625;28;20238;-63
2021/11/04 05:56:50;;;;;;;13.87;12.53;;;;;;;10.25;72.10;100286.47;6135171;28;20512;-62
2021/11/04 06:00:12;;;;;;;15.43;13.97;;;;;;;10.24;72.06;100287.38;6135652;28;20230;-64
2021/11/04 06:03:33;;;;;;;15.70;14.07;;;;;;;10.20;72.27;100290.91;6133367;28;20231;-63
2021/11/04 06:06:56;;;;;;;16.17;14.57;;;;;;;10.29;71.66;100292.50;6134766;28;20259;-63
2021/11/04 06:10:17;;;;;;;14.57;12.77;;;;;;;10.33;72.07;100296.78;6133494;28;20215;-64
2021/11/04 06:13:37;;;;;;;15.10;13.57;;;;;;;10.26;72.20;100293.41;6133668;28;20231;-63
2021/11/04 06:16:59;;;;;;;14.90;13.40;;;;;;;10.37;71.91;100298.44;6136455;28;20288;-63
2021/11/04 06:20:20;;;;;;;14.77;12.93;;;;;;;10.30;72.15;100302.91;6132338;28;20216;-64
2021/11/04 06:23:42;;;;;;;15.00;13.37;;;;;;;10.09;72.82;100309.28;6135062;28;20255;-63
2021/11/04 06:27:04;;;;;;;17.03;15.33;;;;;;;10.11;73.05;100314.47;6135673;28;20259;-63
2021/11/04 06:30:25;;;;;;;18.23;16.30;;;;;;;10.16;72.71;100315.25;6133790;29;20211;-63
2021/11/04 06:33:46;;;;;;;17.87;16.10;;;;;;;10.12;73.20;100310.97;6135513;28;20596;-63
2021/11/04 06:37:07;;;;;;;16.90;15.20;;;;;;;10.08;73.19;100311.88;6139196;28;20248;-63
2021/11/04 06:40:30;;;;;;;18.87;17.13;;;;;;;9.94;74.01;100309.50;6133242;28;20286;-64
2021/11/04 06:43:51;;;;;;;17.93;16.13;;;;;;;9.97;73.40;100312.91;6136320;28;20722;-64
2021/11/04 06:47:19;;;;;;;23.50;21.23;;;;;;;9.98;73.78;100306.84;6129779;28;20235;-63
2021/11/04 06:50:42;;;;;;;20.20;18.23;;;;;;;9.95;73.37;100308.63;6126931;28;20207;-62
2021/11/04 06:54:07;;;;;;;17.20;15.37;;;;;;;10.10;73.27;100312.72;6131625;28;20207;-63
2021/11/04 06:57:31;;;;;;;17.73;16.03;;;;;;;10.00;73.38;100310.28;6134212;28;20243;-65
2021/11/04 07:00:54;;;;;;;19.20;16.80;;;;;;;9.94;73.60;100317.31;6131043;28;20227;-63
2021/11/04 07:04:23;;;;;;;15.67;14.17;;;;;;;10.11;73.75;100322.25;6128965;28;20219;-63
2021/11/04 07:07:46;;;;;;;17.07;15.37;;;;;;;10.15;73.37;100318.72;6132662;28;20231;-65
2021/11/04 07:11:09;;;;;;;13.97;12.57;;;;;;;9.82;74.39;100324.38;6128659;28;20873;-63
2021/11/04 07:14:32;;;;;;;15.47;13.97;;;;;;;9.96;74.40;100320.75;6130405;28;20215;-62
2021/11/04 07:17:54;;;;;;;14.33;12.93;;;;;;;10.03;73.97;100315.41;6134998;28;20228;-64
2021/11/04 07:21:18;;;;;;;13.43;12.07;;;;;;;10.30;74.09;100312.44;6134950;28;20264;-63
2021/11/04 07:24:46;;;;;;;12.27;11.07;;;;;;;10.49;73.24;100313.88;6133659;28;20593;-63
2021/11/04 07:28:14;;;;;;;14.47;13.07;;;;;;;10.38;73.21;100314.06;6131776;28;20234;-64
2021/11/04 07:31:39;;;;;;;14.53;13.03;;;;;;;10.51;72.98;100311.25;6135067;28;20327;-65
2021/11/04 07:35:00;;;;;;;14.07;12.67;;;;;;;10.43;72.66;100311.38;6132944;28;20208;-62
2021/11/04 07:38:25;;;;;;;13.33;11.93;;;;;;;10.36;73.04;100308.00;6133204;28;20598;-63
2021/11/04 07:41:46;;;;;;;13.97;12.67;;;;;;;10.31;73.42;100304.63;6135528;28;20235;-62
2021/11/04 07:45:07;;;;;;;14.23;12.77;;;;;;;10.46;72.58;100305.25;6134613;28;20775;-63
2021/11/04 07:48:30;;;;;;;13.53;12.13;;;;;;;10.50;72.59;100306.94;6133600;28;20227;-62
2021/11/04 07:51:56;;;;;;;12.90;11.60;;;;;;;10.49;72.67;100300.00;6133065;28;20318;-63
2021/11/04 07:55:18;;;;;;;14.90;12.90;;;;;;;10.48;72.81;100291.31;6131839;28;20235;-64
2021/11/04 07:58:39;;;;;;;13.17;11.87;;;;;;;10.50;72.86;100288.69;6136230;28;20223;-62
2021/11/04 08:02:01;;;;;;;15.83;14.13;;;;;;;10.47;73.56;100292.22;6132058;28;20239;-62
2021/11/04 08:05:24;;;;;;;15.67;14.07;;;;;;;10.32;73.50;100284.69;6134109;28;20211;-63
2021/11/04 08:08:45;;;;;;;14.20;12.80;;;;;;;10.33;74.48;100287.25;6136290;28;20330;-61
2021/11/04 08:12:06;;;;;;;13.70;12.30;;;;;;;10.50;73.56;100284.34;6129972;28;20236;-61
2021/11/04 08:15:27;;;;;;;12.80;11.60;;;;;;;10.48;73.57;100291.31;6133148;29;20216;-62
2021/11/04 08:18:48;;;;;;;13.57;12.17;;;;;;;10.40;73.37;100293.22;6134367;28;20215;-62
2021/11/04 08:22:11;;;;;;;13.23;11.93;;;;;;;10.30;73.98;100296.81;6132741;28;20326;-62
2021/11/04 08:25:32;;;;;;;13.20;11.90;;;;;;;10.64;72.89;100305.81;6128885;28;20195;-61
2021/11/04 08:28:53;;;;;;;14.67;12.27;;;;;;;10.74;73.12;100298.69;6132023;28;20814;-62
2021/11/04 08:32:14;;;;;;;12.07;10.43;;;;;;;10.92;72.69;100296.66;6129708;28;20231;-63
2021/11/04 08:35:35;;;;;;;13.20;11.90;;;;;;;11.13;72.11;100298.84;6133798;28;20211;-62
2021/11/04 08:38:57;;;;;;;13.87;12.37;;;;;;;10.90;72.40;100298.41;6131132;28;20219;-61
2021/11/04 08:42:18;;;;;;;11.53;10.43;;;;;;;10.88;71.70;100295.00;6130686;28;20568;-60
2021/11/04 08:45:39;;;;;;;13.33;12.07;;;;;;;10.69;72.60;100286.66;6127481;28;20203;-59
2021/11/04 08:49:02;;;;;;;12.13;10.83;;;;;;;10.81;71.84;100289.00;6130555;28;21827;-61
2021/11/04 08:52:24;;;;;;;12.23;10.97;;;;;;;10.71;71.76;100284.88;6131903;28;20322;-62
2021/11/04 08:55:47;;;;;;;10.97;9.97;;;;;;;10.53;72.32;100291.28;6131037;28;20267;-62
2021/11/04 08:59:08;;;;;;;10.37;9.30;;;;;;;10.33;72.43;100292.47;6131997;28;20329;-62
2021/11/04 09:02:29;;;;;;;10.23;9.13;;;;;;;10.58;72.11;100285.06;6129806;28;20326;-62
2021/11/04 09:05:50;;;;;;;9.67;8.77;;;;;;;10.73;71.92;100286.56;6128290;28;20461;-61
2021/11/04 09:09:12;;;;;;;10.73;9.63;;;;;;;10.75;71.74;100283.94;6132022;29;20231;-63
2021/11/04 09:12:34;;;;;;;9.67;8.47;;;;;;;10.66;71.62;100284.09;6129666;28;20231;-63
2021/11/04 09:15:55;;;;;;;10.13;9.10;;;;;;;10.74;71.01;100285.69;6128942;28;20203;-63
2021/11/04 09:19:18;;;;;;;10.17;8.73;;;;;;;10.57;71.50;100282.50;6129766;28;20207;-63
2021/11/04 09:22:39;;;;;;;16.93;15.43;;;;;;;10.61;72.00;100281.56;6132159;28;20234;-62
2021/11/04 09:26:00;;;;;;;10.60;9.37;;;;;;;10.70;71.18;100275.31;6132449;28;20229;-61
2021/11/04 09:29:22;;;;;;;9.00;8.07;;;;;;;10.73;71.69;100276.13;6126755;28;20219;-63
2021/11/04 09:32:44;;;;;;;10.13;9.17;;;;;;;10.68;71.58;100272.75;6123194;28;20243;-62
2021/11/04 09:36:05;;;;;;;7.90;7.10;;;;;;;10.64;72.11;100268.47;6133205;28;20624;-62
2021/11/04 09:39:26;;;;;;;7.17;6.53;;;;;;;10.56;72.41;100266.00;6133053;28;20204;-61
2021/11/04 09:42:50;;;;;;;9.87;7.83;;;;;;;10.48;72.00;100264.44;6134057;28;20231;-62
2021/11/04 09:46:13;;;;;;;11.07;7.67;;;;;;;10.49;72.70;100260.94;6133780;28;20703;-61
2021/11/04 09:49:34;;;;;;;6.90;6.20;;;;;;;10.34;72.29;100257.72;6134044;28;20219;-62
2021/11/04 09:52:55;;;;;;;10.27;7.90;;;;;;;10.44;72.12;100261.88;6131455;28;20231;-62
2021/11/04 09:56:18;;;;;;;7.07;6.43;;;;;;;10.71;72.24;100249.25;6133095;28;20263;-62
2021/11/04 09:59:38;;;;;;;7.97;7.33;;;;;;;10.73;72.27;100254.44;6133763;28;20200;-62
2021/11/04 10:03:06;;;;;;;8.93;8.10;;;;;;;10.46;72.90;100261.00;6130416;28;20802;-62
2021/11/04 10:06:29;;;;;;;8.13;7.33;;;;;;;10.77;71.94;100251.75;6130463;28;20238;-62
2021/11/04 10:10:01;;;;;;;9.53;8.53;;;;;;;10.46;73.15;100256.66;6138500;28;20232;-63
2021/11/04 10:13:31;;;;;;;10.50;9.03;;;;;;;10.47;73.27;100253.19;6137264;28;20243;-62
2021/11/04 10:16:52;;;;;;;9.70;8.70;;;;;;;10.45;73.34;100254.94;6138651;28;21016;-62
2021/11/04 10:20:17;;;;;;;10.20;9.17;;;;;;;10.52;73.82;100253.94;6140158;28;20287;-62
2021/11/04 10:23:40;;;;;;;9.80;8.80;;;;;;;10.57;73.60;100253.88;6132308;28;20266;-63
2021/11/04 10:27:02;;;;;;;11.10;10.00;;;;;;;10.50;74.14;100242.69;6135961;28;20235;-63
2021/11/04 10:30:35;;;;;;;14.77;11.03;;;;;;;10.74;73.12;100249.22;6137191;28;20306;-62
2021/11/04 10:33:56;;;;;;;15.03;10.80;;;;;;;10.91;76.32;100243.66;6134920;28;20363;-61
2021/11/04 10:37:20;;;;;;;14.63;11.57;;;;;;;11.15;75.28;100247.53;6138596;28;20239;-61
2021/11/04 10:40:42;;;;;;;11.80;10.47;;;;;;;11.22;72.96;100248.25;6132549;28;20767;-59
2021/11/04 10:44:05;;;;;;;12.97;11.57;;;;;;;10.96;72.84;100254.00;6130710;28;20235;-62
2021/11/04 10:47:26;;;;;;;14.00;12.57;;;;;;;10.93;73.53;100252.31;6128063;28;21473;-62
2021/11/04 10:50:49;;;;;;;12.77;11.37;;;;;;;10.41;74.27;100254.16;6136149;28;20334;-61
2021/11/04 10:54:14;;;;;;;13.03;11.67;;;;;;;10.55;74.23;100250.44;6138439;28;20219;-61
2021/11/04 10:57:38;;;;;;;13.83;12.37;;;;;;;10.67;73.93;100244.16;6134208;28;22382;-62
2021/11/04 11:01:00;;;;;;;13.67;12.27;;;;;;;10.76;73.68;100239.63;6134707;28;20388;-63
2021/11/04 11:04:23;;;;;;;14.80;13.30;;;;;;;10.74;73.84;100244.00;6135236;28;20211;-62
2021/11/04 11:07:45;;;;;;;12.53;11.23;;;;;;;10.92;73.43;100239.34;6136464;28;20565;-62
2021/11/04 11:11:07;;;;;;;16.93;15.13;;;;;;;10.57;74.01;100238.25;6130149;28;20235;-62
2021/11/04 11:14:30;;;;;;;14.17;12.67;;;;;;;10.56;74.81;100231.31;6137118;28;21645;-61
2021/11/04 11:17:53;;;;;;;13.50;12.17;;;;;;;10.81;73.82;100227.34;6136420;28;20732;-63
2021/11/04 11:21:15;;;;;;;12.63;11.43;;;;;;;10.72;73.81;100231.88;6137173;28;20255;-63
2021/11/04 11:24:40;;;;;;;14.23;12.83;;;;;;;10.72;74.24;100229.28;6137824;29;20519;-62
2021/11/04 11:28:03;;;;;;;17.87;16.13;;;;;;;10.95;73.37;100239.25;6131403;28;20314;-62
2021/11/04 11:31:26;;;;;;;13.43;12.07;;;;;;;10.69;74.24;100231.94;6133586;28;20243;-62
2021/11/04 11:34:48;;;;;;;15.13;13.53;;;;;;;10.88;74.02;100233.31;6137137;29;20207;-63
2021/11/04 11:38:10;;;;;;;14.63;13.13;;;;;;;10.76;73.97;100231.81;6135320;28;20690;-63
2021/11/04 11:41:32;;;;;;;15.73;14.30;;;;;;;10.63;74.34;100217.31;6129978;28;20247;-63
2021/11/04 11:45:01;;;;;;;14.60;12.73;;;;;;;10.58;74.39;100225.19;6136419;28;20232;-63
2021/11/04 11:48:26;;;;;;;13.97;12.50;;;;;;;10.52;74.21;100233.09;6134702;28;20342;-64
2021/11/04 11:51:54;;;;;;;13.57;12.23;;;;;;;10.60;74.18;100227.75;6134926;28;20334;-63
2021/11/04 11:55:18;;;;;;;13.43;12.20;;;;;;;10.43;74.53;100218.53;6133107;28;20227;-63
2021/11/04 11:58:44;;;;;;;16.20;12.27;;;;;;;10.60;74.21;100218.22;6127564;28;20624;-61
2021/11/04 12:02:07;;;;;;;13.63;12.07;;;;;;;10.48;74.62;100221.03;6129679;28;20243;-62
2021/11/04 12:05:39;;;;;;;13.83;12.43;;;;;;;10.44;74.43;100220.22;6130572;28;20775;-59
2021/11/04 12:09:02;;;;;;;12.40;11.17;;;;;;;10.64;74.62;100214.69;6129721;28;20243;-62
2021/11/04 12:12:47;;;;;;;12.37;11.07;;;;;;;10.62;74.14;100216.44;6130369;28;20235;-60
2021/11/04 12:16:16;;;;;;;11.57;10.37;;;;;;;10.60;74.33;100214.75;6147496;28;20620;-62
2021/11/04 12:19:40;;;;;;;13.23;11.97;;;;;;;10.65;73.92;100220.72;6137015;29;20199;-62
2021/11/04 12:23:01;;;;;;;11.53;10.43;;;;;;;10.63;73.94;100217.31;6134853;28;20546;-61
2021/11/04 12:26:32;;;;;;;11.33;10.23;;;;;;;10.62;73.93;100216.44;6135322;28;20227;-61
2021/11/04 12:29:56;;;;;;;11.77;10.30;;;;;;;10.88;73.80;100216.84;6137020;28;20235;-61
2021/11/04 12:33:17;;;;;;;11.57;10.47;;;;;;;10.52;74.80;100209.69;6134569;28;20317;-60
2021/11/04 12:36:41;;;;;;;10.43;9.33;;;;;;;10.72;74.44;100211.03;6133503;28;20854;-61
2021/11/04 12:40:04;;;;;;;13.63;11.77;;;;;;;11.02;76.24;100214.81;6132029;28;20204;-62
2021/11/04 12:43:32;;;;;;;12.00;10.67;;;;;;;11.14;75.57;100209.31;6132159;28;20247;-62
2021/11/04 12:46:53;;;;;;;11.50;10.40;;;;;;;10.89;74.46;100215.94;6133843;28;20231;-60
2021/11/04 12:50:24;;;;;;;11.30;10.20;;;;;;;10.62;74.54;100226.00;6135967;28;20686;-61
2021/11/04 12:53:51;;;;;;;11.67;10.63;;;;;;;10.44;75.34;100212.41;6133237;28;20258;-62
2021/11/04 12:57:13;;;;;;;11.07;10.07;;;;;;;10.47;75.33;100223.66;6128984;28;20330;-61
2021/11/04 13:00:35;;;;;;;13.97;12.50;;;;;;;10.39;75.91;100219.47;6130276;29;20211;-62
2021/11/04 13:03:56;;;;;;;12.07;10.77;;;;;;;10.43;75.41;100221.13;6127939;28;20223;-61
2021/11/04 13:07:19;;;;;;;11.13;9.97;;;;;;;10.57;75.29;100220.88;6129096;28;20231;-63
2021/11/04 13:10:41;;;;;;;12.50;11.30;;;;;;;10.55;75.69;100214.00;6130485;28;20330;-63
2021/11/04 13:14:03;;;;;;;11.33;10.23;;;;;;;10.58;76.28;100219.97;6130830;28;20235;-63
2021/11/04 13:17:30;;;;;;;12.13;9.73;;;;;;;10.67;75.32;100213.75;6135653;28;20231;-62
2021/11/04 13:20:51;;;;;;;10.47;9.67;;;;;;;10.53;76.03;100213.16;6133466;28;20231;-62
2021/11/04 13:24:12;;;;;;;10.03;9.10;;;;;;;10.68;75.36;100222.41;6135469;28;20211;-60
2021/11/04 13:27:36;;;;;;;10.07;9.07;;;;;;;10.49;75.85;100214.06;6133168;28;20671;-61
2021/11/04 13:30:59;;;;;;;10.07;9.17;;;;;;;10.67;75.59;100213.75;6136283;28;20212;-61
2021/11/04 13:34:20;;;;;;;9.37;8.47;;;;;;;10.76;75.19;100218.78;6136585;28;20232;-61
2021/11/04 13:37:40;;;;;;;10.57;9.57;;;;;;;10.55;76.50;100229.63;6132841;28;20263;-62
2021/11/04 13:41:04;;;;;;;10.83;9.83;;;;;;;10.40;77.09;100226.38;6132339;28;20227;-61
2021/11/04 13:44:30;;;;;;;11.47;10.17;;;;;;;10.68;75.75;100225.00;6139400;28;20472;-62
2021/11/04 13:47:50;;;;;;;10.73;9.73;;;;;;;10.58;76.09;100224.34;6136916;28;20239;-61
2021/11/04 13:51:27;;;;;;;9.13;8.33;;;;;;;10.42;76.53;100227.22;6135627;28;20326;-62
2021/11/04 13:54:48;;;;;;;11.57;9.80;;;;;;;10.42;76.50;100223.75;6136932;28;20215;-63
2021/11/04 13:58:09;;;;;;;10.17;9.13;;;;;;;10.57;76.27;100233.03;6140993;28;20231;-64
2021/11/04 14:01:32;;;;;;;14.90;13.50;;;;;;;10.49;76.30;100221.88;6136841;28;20243;-62
2021/11/04 14:04:55;;;;;;;12.77;11.57;;;;;;;10.41;76.75;100228.13;6139596;28;20223;-62
2021/11/04 14:08:16;;;;;;;10.20;9.17;;;;;;;10.27;76.89;100229.19;6138728;28;20231;-62
2021/11/04 14:11:38;;;;;;;8.93;8.13;;;;;;;10.39;76.96;100216.88;6138601;28;20826;-62
2021/11/04 14:15:08;;;;;;;9.73;8.77;;;;;;;10.30;77.10;100230.03;6139135;29;20204;-61
2021/11/04 14:18:30;;;;;;;9.73;8.77;;;;;;;10.38;76.81;100229.91;6137760;28;20242;-63
2021/11/04 14:21:51;;;;;;;9.83;8.93;;;;;;;10.28;77.18;100234.38;6138172;28;20239;-62
2021/11/04 14:25:13;;;;;;;9.27;8.20;;;;;;;10.21;77.29;100236.22;6140270;28;20212;-63
2021/11/04 14:28:34;;;;;;;11.63;9.03;;;;;;;10.32;77.27;100238.69;6139442;28;20235;-61
2021/11/04 14:31:55;;;;;;;9.10;8.30;;;;;;;10.30;77.19;100235.25;6137774;28;20680;-61
2021/11/04 14:35:18;;;;;;;8.30;7.60;;;;;;;10.27;77.16;100243.06;6139093;28;20211;-61
2021/11/04 14:38:39;;;;;;;9.70;8.80;;;;;;;10.35;76.83;100248.16;6112079;28;20259;-62
2021/11/04 14:42:00;;;;;;;11.47;8.73;;;;;;;10.33;77.10;100243.00;6112359;28;20512;-61
2021/11/04 14:45:22;;;;;;;8.77;7.90;;;;;;;9.98;78.25;100252.22;6136854;28;20254;-62
2021/11/04 14:48:43;;;;;;;8.77;7.83;;;;;;;10.29;77.31;100250.84;6131574;29;20247;-62
2021/11/04 14:52:07;;;;;;;8.73;7.93;;;;;;;10.25;77.02;100248.31;6137193;28;20243;-62
2021/11/04 14:55:27;;;;;;;8.50;7.70;;;;;;;10.39;76.83;100255.91;6136316;28;20215;-62
2021/11/04 14:58:48;;;;;;;9.73;8.77;;;;;;;10.70;76.17;100262.31;6137345;28;20239;-62
2021/11/04 15:02:09;;;;;;;8.07;7.37;;;;;;;10.28;77.09;100263.00;6136693;28;20243;-62
2021/11/04 15:05:31;;;;;;;9.03;8.10;;;;;;;10.15;77.46;100266.69;6135766;28;20219;-61
2021/11/04 15:08:56;;;;;;;10.80;9.77;;;;;;;10.14;77.93;100265.84;6129045;28;20318;-63
2021/11/04 15:12:17;;;;;;;9.17;8.27;;;;;;;10.30;77.56;100274.28;6125011;28;20326;-62
2021/11/04 15:15:39;;;;;;;9.13;7.97;;;;;;;10.08;78.05;100275.47;6134159;28;20689;-62
2021/11/04 15:19:01;;;;;;;9.10;8.20;;;;;;;10.14;78.04;100275.38;6137069;28;20227;-63
2021/11/04 15:22:22;;;;;;;10.93;9.93;;;;;;;10.28;77.19;100276.03;6136078;28;20250;-62
2021/11/04 15:25:44;;;;;;;9.67;8.33;;;;;;;10.18;77.99;100282.28;6132454;28;20595;-62